sensor_id;sensor_type;location;lat;lon;timestamp;P1;durP1;ratioP1;P2;durP2;ratioP2
23228;SDS011;11783;50.350;6.576;2023-08-21T00:00:54;7.47;;;5.55;;
23228;SDS011;11783;50.350;6.576;2023-08-21T00:03:20;11.25;;;6.00;;
23228;SDS011;11783;50.350;6.576;2023-08-21T00:05:46;11.27;;;5.82;;
23228;SDS011;11783;50.350;6.576;2023-08-21T00:08:11;11.43;;;6.20;;
23228;SDS011;11783;50.350;6.576;2023-08-21T00:10:37;9.35;;;6.15;;
23228;SDS011;11783;50.350;6.576;2023-08-21T00:13:03;7.95;;;5.60;;
23228;SDS011;11783;50.350;6.576;2023-08-21T00:15:29;10.45;;;5.75;;
23228;SDS011;11783;50.350;6.576;2023-08-21T00:17:54;8.57;;;5.50;;
23228;SDS011;11783;50.350;6.576;2023-08-21T00:20:20;10.10;;;5.45;;
23228;SDS011;11783;50.350;6.576;2023-08-21T00:22:45;11.10;;;5.90;;
23228;SDS011;11783;50.350;6.576;2023-08-21T00:25:10;10.20;;;5.10;;
23228;SDS011;11783;50.350;6.576;2023-08-21T00:27:36;9.55;;;5.32;;
23228;SDS011;11783;50.350;6.576;2023-08-21T00:30:01;11.77;;;5.47;;
23228;SDS011;11783;50.350;6.576;2023-08-21T00:32:27;11.18;;;5.80;;
23228;SDS011;11783;50.350;6.576;2023-08-21T00:34:52;9.32;;;5.70;;
23228;SDS011;11783;50.350;6.576;2023-08-21T00:37:17;12.75;;;5.97;;
23228;SDS011;11783;50.350;6.576;2023-08-21T00:39:43;10.43;;;5.75;;
23228;SDS011;11783;50.350;6.576;2023-08-21T00:42:08;8.38;;;5.40;;
23228;SDS011;11783;50.350;6.576;2023-08-21T00:44:33;10.65;;;6.00;;
23228;SDS011;11783;50.350;6.576;2023-08-21T00:46:59;13.57;;;6.28;;
23228;SDS011;11783;50.350;6.576;2023-08-21T00:49:25;8.52;;;5.95;;
23228;SDS011;11783;50.350;6.576;2023-08-21T00:51:51;10.43;;;5.70;;
23228;SDS011;11783;50.350;6.576;2023-08-21T00:54:18;8.05;;;5.35;;
23228;SDS011;11783;50.350;6.576;2023-08-21T00:56:44;7.80;;;5.82;;
23228;SDS011;11783;50.350;6.576;2023-08-21T00:59:10;8.65;;;5.22;;
23228;SDS011;11783;50.350;6.576;2023-08-21T01:01:36;9.07;;;5.50;;
23228;SDS011;11783;50.350;6.576;2023-08-21T01:04:02;10.27;;;5.70;;
23228;SDS011;11783;50.350;6.576;2023-08-21T01:06:28;8.70;;;5.60;;
23228;SDS011;11783;50.350;6.576;2023-08-21T01:11:34;11.40;;;5.70;;
23228;SDS011;11783;50.350;6.576;2023-08-21T01:14:31;11.82;;;6.20;;
23228;SDS011;11783;50.350;6.576;2023-08-21T01:17:02;9.15;;;5.20;;
23228;SDS011;11783;50.350;6.576;2023-08-21T01:19:36;7.65;;;5.15;;
23228;SDS011;11783;50.350;6.576;2023-08-21T01:22:04;9.00;;;5.63;;
23228;SDS011;11783;50.350;6.576;2023-08-21T01:24:29;9.80;;;5.30;;
23228;SDS011;11783;50.350;6.576;2023-08-21T01:26:55;9.00;;;5.97;;
23228;SDS011;11783;50.350;6.576;2023-08-21T01:29:20;12.63;;;5.70;;
23228;SDS011;11783;50.350;6.576;2023-08-21T01:31:47;6.85;;;5.18;;
23228;SDS011;11783;50.350;6.576;2023-08-21T01:36:43;10.70;;;6.15;;
23228;SDS011;11783;50.350;6.576;2023-08-21T01:39:09;10.40;;;5.50;;
23228;SDS011;11783;50.350;6.576;2023-08-21T01:41:35;7.53;;;5.80;;
23228;SDS011;11783;50.350;6.576;2023-08-21T01:44:00;9.25;;;5.75;;
23228;SDS011;11783;50.350;6.576;2023-08-21T01:46:26;10.45;;;5.35;;
23228;SDS011;11783;50.350;6.576;2023-08-21T01:48:51;8.07;;;5.78;;
23228;SDS011;11783;50.350;6.576;2023-08-21T01:51:16;8.63;;;5.90;;
23228;SDS011;11783;50.350;6.576;2023-08-21T01:53:42;9.75;;;6.00;;
23228;SDS011;11783;50.350;6.576;2023-08-21T01:56:07;9.07;;;5.65;;
23228;SDS011;11783;50.350;6.576;2023-08-21T01:58:32;10.82;;;5.97;;
23228;SDS011;11783;50.350;6.576;2023-08-21T02:00:58;12.10;;;5.45;;
23228;SDS011;11783;50.350;6.576;2023-08-21T02:03:25;10.10;;;5.97;;
23228;SDS011;11783;50.350;6.576;2023-08-21T02:05:54;7.88;;;5.50;;
23228;SDS011;11783;50.350;6.576;2023-08-21T02:08:21;8.77;;;6.30;;
23228;SDS011;11783;50.350;6.576;2023-08-21T02:10:50;11.57;;;5.85;;
23228;SDS011;11783;50.350;6.576;2023-08-21T02:13:16;9.20;;;5.68;;
23228;SDS011;11783;50.350;6.576;2023-08-21T02:15:41;9.55;;;5.85;;
23228;SDS011;11783;50.350;6.576;2023-08-21T02:18:06;9.55;;;5.85;;
23228;SDS011;11783;50.350;6.576;2023-08-21T02:20:32;9.38;;;5.90;;
23228;SDS011;11783;50.350;6.576;2023-08-21T02:22:57;9.23;;;5.47;;
23228;SDS011;11783;50.350;6.576;2023-08-21T02:25:22;7.88;;;5.38;;
23228;SDS011;11783;50.350;6.576;2023-08-21T02:27:48;10.43;;;5.90;;
23228;SDS011;11783;50.350;6.576;2023-08-21T02:30:13;8.45;;;5.85;;
23228;SDS011;11783;50.350;6.576;2023-08-21T02:32:39;8.82;;;6.28;;
23228;SDS011;11783;50.350;6.576;2023-08-21T02:35:05;8.43;;;5.72;;
23228;SDS011;11783;50.350;6.576;2023-08-21T02:37:31;9.80;;;5.95;;
23228;SDS011;11783;50.350;6.576;2023-08-21T02:39:56;12.55;;;6.78;;
23228;SDS011;11783;50.350;6.576;2023-08-21T02:42:22;9.55;;;5.95;;
23228;SDS011;11783;50.350;6.576;2023-08-21T02:44:47;9.15;;;5.90;;
23228;SDS011;11783;50.350;6.576;2023-08-21T02:47:12;9.90;;;5.80;;
23228;SDS011;11783;50.350;6.576;2023-08-21T02:49:38;10.27;;;6.38;;
23228;SDS011;11783;50.350;6.576;2023-08-21T02:52:03;7.90;;;6.03;;
23228;SDS011;11783;50.350;6.576;2023-08-21T02:54:28;8.35;;;6.30;;
23228;SDS011;11783;50.350;6.576;2023-08-21T02:56:54;10.65;;;6.40;;
23228;SDS011;11783;50.350;6.576;2023-08-21T02:59:19;9.73;;;6.38;;
23228;SDS011;11783;50.350;6.576;2023-08-21T03:01:44;11.38;;;6.95;;
23228;SDS011;11783;50.350;6.576;2023-08-21T03:04:10;12.50;;;7.35;;
23228;SDS011;11783;50.350;6.576;2023-08-21T03:06:35;9.07;;;6.75;;
23228;SDS011;11783;50.350;6.576;2023-08-21T03:09:00;11.07;;;6.65;;
23228;SDS011;11783;50.350;6.576;2023-08-21T03:11:26;10.10;;;7.05;;
23228;SDS011;11783;50.350;6.576;2023-08-21T03:13:51;10.68;;;6.97;;
23228;SDS011;11783;50.350;6.576;2023-08-21T03:16:17;10.40;;;7.18;;
23228;SDS011;11783;50.350;6.576;2023-08-21T03:18:58;11.55;;;7.63;;
23228;SDS011;11783;50.350;6.576;2023-08-21T03:21:25;13.55;;;8.70;;
23228;SDS011;11783;50.350;6.576;2023-08-21T03:23:51;11.10;;;8.15;;
23228;SDS011;11783;50.350;6.576;2023-08-21T03:26:17;10.93;;;8.20;;
23228;SDS011;11783;50.350;6.576;2023-08-21T03:28:42;12.32;;;8.65;;
23228;SDS011;11783;50.350;6.576;2023-08-21T03:31:08;11.27;;;8.70;;
23228;SDS011;11783;50.350;6.576;2023-08-21T03:33:33;12.10;;;8.60;;
23228;SDS011;11783;50.350;6.576;2023-08-21T03:35:58;11.23;;;8.02;;
23228;SDS011;11783;50.350;6.576;2023-08-21T03:38:24;12.43;;;8.60;;
23228;SDS011;11783;50.350;6.576;2023-08-21T03:40:49;10.70;;;8.70;;
23228;SDS011;11783;50.350;6.576;2023-08-21T03:43:14;14.88;;;8.57;;
23228;SDS011;11783;50.350;6.576;2023-08-21T03:45:40;9.90;;;8.25;;
23228;SDS011;11783;50.350;6.576;2023-08-21T03:48:05;11.88;;;7.22;;
23228;SDS011;11783;50.350;6.576;2023-08-21T03:50:30;10.73;;;7.20;;
23228;SDS011;11783;50.350;6.576;2023-08-21T03:52:56;11.02;;;7.40;;
23228;SDS011;11783;50.350;6.576;2023-08-21T03:55:21;11.57;;;7.53;;
23228;SDS011;11783;50.350;6.576;2023-08-21T03:57:46;12.27;;;8.02;;
23228;SDS011;11783;50.350;6.576;2023-08-21T04:00:12;12.13;;;8.25;;
23228;SDS011;11783;50.350;6.576;2023-08-21T04:02:37;10.30;;;7.82;;
23228;SDS011;11783;50.350;6.576;2023-08-21T04:05:03;9.55;;;7.90;;
23228;SDS011;11783;50.350;6.576;2023-08-21T04:07:28;11.43;;;7.85;;
23228;SDS011;11783;50.350;6.576;2023-08-21T04:09:54;10.45;;;8.70;;
23228;SDS011;11783;50.350;6.576;2023-08-21T04:12:19;10.93;;;8.40;;
23228;SDS011;11783;50.350;6.576;2023-08-21T04:14:44;12.00;;;8.93;;
23228;SDS011;11783;50.350;6.576;2023-08-21T04:17:10;11.13;;;8.15;;
23228;SDS011;11783;50.350;6.576;2023-08-21T04:19:35;10.15;;;7.78;;
23228;SDS011;11783;50.350;6.576;2023-08-21T04:22:00;11.07;;;8.18;;
23228;SDS011;11783;50.350;6.576;2023-08-21T04:24:26;12.10;;;8.77;;
23228;SDS011;11783;50.350;6.576;2023-08-21T04:26:51;12.00;;;8.77;;
23228;SDS011;11783;50.350;6.576;2023-08-21T04:29:16;12.90;;;8.65;;
23228;SDS011;11783;50.350;6.576;2023-08-21T04:31:42;11.50;;;9.10;;
23228;SDS011;11783;50.350;6.576;2023-08-21T04:34:07;11.32;;;8.73;;
23228;SDS011;11783;50.350;6.576;2023-08-21T04:36:32;10.98;;;8.45;;
23228;SDS011;11783;50.350;6.576;2023-08-21T04:38:58;12.10;;;8.98;;
23228;SDS011;11783;50.350;6.576;2023-08-21T04:41:23;13.30;;;8.77;;
23228;SDS011;11783;50.350;6.576;2023-08-21T04:43:48;11.77;;;8.80;;
23228;SDS011;11783;50.350;6.576;2023-08-21T04:46:14;12.30;;;9.10;;
23228;SDS011;11783;50.350;6.576;2023-08-21T04:48:39;10.68;;;9.52;;
23228;SDS011;11783;50.350;6.576;2023-08-21T04:51:04;13.68;;;9.65;;
23228;SDS011;11783;50.350;6.576;2023-08-21T04:53:30;11.18;;;8.80;;
23228;SDS011;11783;50.350;6.576;2023-08-21T04:55:55;13.15;;;9.45;;
23228;SDS011;11783;50.350;6.576;2023-08-21T04:58:23;12.93;;;9.43;;
23228;SDS011;11783;50.350;6.576;2023-08-21T05:00:48;14.43;;;9.15;;
23228;SDS011;11783;50.350;6.576;2023-08-21T05:03:14;12.90;;;10.07;;
23228;SDS011;11783;50.350;6.576;2023-08-21T05:05:39;12.23;;;9.75;;
23228;SDS011;11783;50.350;6.576;2023-08-21T05:08:05;13.13;;;9.93;;
23228;SDS011;11783;50.350;6.576;2023-08-21T05:10:30;12.75;;;9.50;;
23228;SDS011;11783;50.350;6.576;2023-08-21T05:12:56;10.23;;;8.88;;
23228;SDS011;11783;50.350;6.576;2023-08-21T05:15:22;13.93;;;9.70;;
23228;SDS011;11783;50.350;6.576;2023-08-21T05:17:47;12.65;;;9.68;;
23228;SDS011;11783;50.350;6.576;2023-08-21T05:20:13;13.23;;;10.60;;
23228;SDS011;11783;50.350;6.576;2023-08-21T05:22:39;16.42;;;11.82;;
23228;SDS011;11783;50.350;6.576;2023-08-21T05:25:05;13.65;;;11.13;;
23228;SDS011;11783;50.350;6.576;2023-08-21T05:27:32;12.75;;;10.15;;
23228;SDS011;11783;50.350;6.576;2023-08-21T05:29:57;13.45;;;9.98;;
23228;SDS011;11783;50.350;6.576;2023-08-21T05:32:23;15.02;;;10.90;;
23228;SDS011;11783;50.350;6.576;2023-08-21T05:34:48;13.73;;;10.30;;
23228;SDS011;11783;50.350;6.576;2023-08-21T05:37:13;13.90;;;11.05;;
23228;SDS011;11783;50.350;6.576;2023-08-21T05:39:39;18.05;;;10.88;;
23228;SDS011;11783;50.350;6.576;2023-08-21T05:42:04;20.13;;;12.38;;
23228;SDS011;11783;50.350;6.576;2023-08-21T05:44:29;15.40;;;12.00;;
23228;SDS011;11783;50.350;6.576;2023-08-21T05:46:55;14.80;;;11.15;;
23228;SDS011;11783;50.350;6.576;2023-08-21T05:49:20;13.75;;;11.30;;
23228;SDS011;11783;50.350;6.576;2023-08-21T05:51:45;13.60;;;11.68;;
23228;SDS011;11783;50.350;6.576;2023-08-21T05:54:11;14.32;;;11.13;;
23228;SDS011;11783;50.350;6.576;2023-08-21T05:56:36;16.92;;;10.43;;
23228;SDS011;11783;50.350;6.576;2023-08-21T05:59:01;13.02;;;10.95;;
23228;SDS011;11783;50.350;6.576;2023-08-21T06:01:27;13.63;;;10.27;;
23228;SDS011;11783;50.350;6.576;2023-08-21T06:03:52;12.63;;;10.23;;
23228;SDS011;11783;50.350;6.576;2023-08-21T06:06:17;13.35;;;10.73;;
23228;SDS011;11783;50.350;6.576;2023-08-21T06:08:43;13.00;;;9.82;;
23228;SDS011;11783;50.350;6.576;2023-08-21T06:11:08;12.25;;;10.05;;
23228;SDS011;11783;50.350;6.576;2023-08-21T06:13:34;11.95;;;9.50;;
23228;SDS011;11783;50.350;6.576;2023-08-21T06:15:59;12.38;;;9.15;;
23228;SDS011;11783;50.350;6.576;2023-08-21T06:18:24;11.88;;;9.70;;
23228;SDS011;11783;50.350;6.576;2023-08-21T06:20:50;15.98;;;10.80;;
23228;SDS011;11783;50.350;6.576;2023-08-21T06:23:19;17.15;;;11.02;;
23228;SDS011;11783;50.350;6.576;2023-08-21T06:25:47;13.38;;;10.52;;
23228;SDS011;11783;50.350;6.576;2023-08-21T06:28:13;12.88;;;10.35;;
23228;SDS011;11783;50.350;6.576;2023-08-21T06:30:38;15.50;;;11.05;;
23228;SDS011;11783;50.350;6.576;2023-08-21T06:33:04;15.82;;;11.30;;
23228;SDS011;11783;50.350;6.576;2023-08-21T06:35:29;13.10;;;11.70;;
23228;SDS011;11783;50.350;6.576;2023-08-21T06:37:54;15.27;;;11.70;;
23228;SDS011;11783;50.350;6.576;2023-08-21T06:40:20;13.68;;;11.10;;
23228;SDS011;11783;50.350;6.576;2023-08-21T06:42:45;15.40;;;11.57;;
23228;SDS011;11783;50.350;6.576;2023-08-21T06:45:10;15.05;;;11.50;;
23228;SDS011;11783;50.350;6.576;2023-08-21T06:47:36;15.05;;;11.55;;
23228;SDS011;11783;50.350;6.576;2023-08-21T06:50:01;13.20;;;11.13;;
23228;SDS011;11783;50.350;6.576;2023-08-21T06:52:26;15.60;;;11.73;;
23228;SDS011;11783;50.350;6.576;2023-08-21T06:54:52;16.85;;;11.20;;
23228;SDS011;11783;50.350;6.576;2023-08-21T06:57:17;17.55;;;12.68;;
23228;SDS011;11783;50.350;6.576;2023-08-21T06:59:43;17.33;;;12.18;;
23228;SDS011;11783;50.350;6.576;2023-08-21T07:02:08;17.13;;;12.65;;
23228;SDS011;11783;50.350;6.576;2023-08-21T07:04:33;18.48;;;13.27;;
23228;SDS011;11783;50.350;6.576;2023-08-21T07:06:59;17.38;;;13.60;;
23228;SDS011;11783;50.350;6.576;2023-08-21T07:09:24;19.42;;;14.55;;
23228;SDS011;11783;50.350;6.576;2023-08-21T07:11:49;17.08;;;13.57;;
23228;SDS011;11783;50.350;6.576;2023-08-21T07:14:15;18.13;;;13.13;;
23228;SDS011;11783;50.350;6.576;2023-08-21T07:16:42;15.45;;;12.98;;
23228;SDS011;11783;50.350;6.576;2023-08-21T07:19:07;16.90;;;13.23;;
23228;SDS011;11783;50.350;6.576;2023-08-21T07:21:32;18.30;;;13.05;;
23228;SDS011;11783;50.350;6.576;2023-08-21T07:24:00;14.55;;;12.95;;
23228;SDS011;11783;50.350;6.576;2023-08-21T07:26:27;14.80;;;12.52;;
23228;SDS011;11783;50.350;6.576;2023-08-21T07:28:53;17.33;;;13.50;;
23228;SDS011;11783;50.350;6.576;2023-08-21T07:31:19;13.73;;;12.32;;
23228;SDS011;11783;50.350;6.576;2023-08-21T07:33:44;15.43;;;12.88;;
23228;SDS011;11783;50.350;6.576;2023-08-21T07:36:09;13.98;;;12.55;;
23228;SDS011;11783;50.350;6.576;2023-08-21T07:38:39;14.45;;;12.93;;
23228;SDS011;11783;50.350;6.576;2023-08-21T07:41:09;15.38;;;13.57;;
23228;SDS011;11783;50.350;6.576;2023-08-21T07:43:36;16.67;;;14.18;;
23228;SDS011;11783;50.350;6.576;2023-08-21T07:46:05;16.30;;;14.00;;
23228;SDS011;11783;50.350;6.576;2023-08-21T07:48:31;17.08;;;13.93;;
23228;SDS011;11783;50.350;6.576;2023-08-21T07:50:57;15.45;;;13.35;;
23228;SDS011;11783;50.350;6.576;2023-08-21T07:53:23;19.65;;;14.18;;
23228;SDS011;11783;50.350;6.576;2023-08-21T07:55:52;16.88;;;12.77;;
23228;SDS011;11783;50.350;6.576;2023-08-21T07:58:17;15.88;;;12.50;;
23228;SDS011;11783;50.350;6.576;2023-08-21T08:00:44;16.00;;;11.70;;
23228;SDS011;11783;50.350;6.576;2023-08-21T08:03:09;12.25;;;10.95;;
23228;SDS011;11783;50.350;6.576;2023-08-21T08:05:36;12.23;;;9.60;;
23228;SDS011;11783;50.350;6.576;2023-08-21T08:08:02;13.18;;;10.25;;
23228;SDS011;11783;50.350;6.576;2023-08-21T08:10:27;11.32;;;8.80;;
23228;SDS011;11783;50.350;6.576;2023-08-21T08:12:53;9.98;;;8.77;;
23228;SDS011;11783;50.350;6.576;2023-08-21T08:15:19;11.68;;;7.85;;
23228;SDS011;11783;50.350;6.576;2023-08-21T08:17:45;11.40;;;7.15;;
23228;SDS011;11783;50.350;6.576;2023-08-21T08:20:11;11.10;;;6.57;;
23228;SDS011;11783;50.350;6.576;2023-08-21T08:22:37;11.23;;;5.82;;
23228;SDS011;11783;50.350;6.576;2023-08-21T08:25:03;10.13;;;5.47;;
23228;SDS011;11783;50.350;6.576;2023-08-21T08:27:31;8.32;;;5.65;;
23228;SDS011;11783;50.350;6.576;2023-08-21T08:29:56;8.93;;;5.88;;
23228;SDS011;11783;50.350;6.576;2023-08-21T08:32:21;9.55;;;4.70;;
23228;SDS011;11783;50.350;6.576;2023-08-21T08:34:47;7.75;;;4.70;;
23228;SDS011;11783;50.350;6.576;2023-08-21T08:37:12;7.15;;;4.85;;
23228;SDS011;11783;50.350;6.576;2023-08-21T08:39:38;6.10;;;3.33;;
23228;SDS011;11783;50.350;6.576;2023-08-21T08:42:03;6.60;;;2.90;;
23228;SDS011;11783;50.350;6.576;2023-08-21T08:44:30;8.35;;;2.80;;
23228;SDS011;11783;50.350;6.576;2023-08-21T08:46:59;6.13;;;2.55;;
23228;SDS011;11783;50.350;6.576;2023-08-21T08:49:26;8.13;;;2.67;;
23228;SDS011;11783;50.350;6.576;2023-08-21T08:51:51;4.50;;;2.30;;
23228;SDS011;11783;50.350;6.576;2023-08-21T08:54:19;5.05;;;2.55;;
23228;SDS011;11783;50.350;6.576;2023-08-21T08:56:45;11.75;;;2.92;;
23228;SDS011;11783;50.350;6.576;2023-08-21T08:59:11;7.47;;;1.80;;
23228;SDS011;11783;50.350;6.576;2023-08-21T09:01:36;3.95;;;1.85;;
23228;SDS011;11783;50.350;6.576;2023-08-21T09:04:02;6.40;;;1.80;;
23228;SDS011;11783;50.350;6.576;2023-08-21T09:06:28;4.13;;;1.50;;
23228;SDS011;11783;50.350;6.576;2023-08-21T09:08:54;4.13;;;1.88;;
23228;SDS011;11783;50.350;6.576;2023-08-21T09:11:20;4.72;;;2.03;;
23228;SDS011;11783;50.350;6.576;2023-08-21T09:13:48;4.40;;;1.90;;
23228;SDS011;11783;50.350;6.576;2023-08-21T09:16:14;4.97;;;2.10;;
23228;SDS011;11783;50.350;6.576;2023-08-21T09:18:48;5.55;;;1.80;;
23228;SDS011;11783;50.350;6.576;2023-08-21T09:21:17;3.28;;;1.58;;
23228;SDS011;11783;50.350;6.576;2023-08-21T09:23:43;6.78;;;1.85;;
23228;SDS011;11783;50.350;6.576;2023-08-21T09:26:09;5.10;;;1.80;;
23228;SDS011;11783;50.350;6.576;2023-08-21T09:28:34;4.85;;;1.70;;
23228;SDS011;11783;50.350;6.576;2023-08-21T09:30:59;5.18;;;1.60;;
23228;SDS011;11783;50.350;6.576;2023-08-21T09:33:25;5.22;;;2.15;;
23228;SDS011;11783;50.350;6.576;2023-08-21T09:35:51;6.70;;;2.53;;
23228;SDS011;11783;50.350;6.576;2023-08-21T09:38:17;5.53;;;2.60;;
23228;SDS011;11783;50.350;6.576;2023-08-21T09:40:50;7.10;;;2.60;;
23228;SDS011;11783;50.350;6.576;2023-08-21T09:43:17;5.28;;;2.25;;
23228;SDS011;11783;50.350;6.576;2023-08-21T09:45:45;4.72;;;2.28;;
23228;SDS011;11783;50.350;6.576;2023-08-21T09:48:12;4.20;;;2.10;;
23228;SDS011;11783;50.350;6.576;2023-08-21T09:50:38;5.32;;;2.03;;
23228;SDS011;11783;50.350;6.576;2023-08-21T09:53:08;4.47;;;2.03;;
23228;SDS011;11783;50.350;6.576;2023-08-21T09:55:35;5.05;;;1.75;;
23228;SDS011;11783;50.350;6.576;2023-08-21T09:58:01;4.30;;;1.67;;
23228;SDS011;11783;50.350;6.576;2023-08-21T10:00:31;4.88;;;1.70;;
23228;SDS011;11783;50.350;6.576;2023-08-21T10:03:07;6.65;;;1.85;;
23228;SDS011;11783;50.350;6.576;2023-08-21T10:05:35;6.05;;;1.80;;
23228;SDS011;11783;50.350;6.576;2023-08-21T10:08:03;4.50;;;1.80;;
23228;SDS011;11783;50.350;6.576;2023-08-21T10:10:30;3.35;;;1.60;;
23228;SDS011;11783;50.350;6.576;2023-08-21T10:12:57;5.47;;;1.90;;
23228;SDS011;11783;50.350;6.576;2023-08-21T10:15:24;4.28;;;1.60;;
23228;SDS011;11783;50.350;6.576;2023-08-21T10:17:50;4.60;;;1.60;;
23228;SDS011;11783;50.350;6.576;2023-08-21T10:20:15;5.35;;;1.73;;
23228;SDS011;11783;50.350;6.576;2023-08-21T10:22:52;4.78;;;1.50;;
23228;SDS011;11783;50.350;6.576;2023-08-21T10:27:56;4.47;;;1.52;;
23228;SDS011;11783;50.350;6.576;2023-08-21T10:30:24;4.18;;;1.65;;
23228;SDS011;11783;50.350;6.576;2023-08-21T10:32:51;5.57;;;1.75;;
23228;SDS011;11783;50.350;6.576;2023-08-21T10:35:21;3.00;;;1.08;;
23228;SDS011;11783;50.350;6.576;2023-08-21T10:40:40;3.22;;;1.80;;
23228;SDS011;11783;50.350;6.576;2023-08-21T10:43:43;5.32;;;1.90;;
23228;SDS011;11783;50.350;6.576;2023-08-21T10:46:12;5.38;;;1.75;;
23228;SDS011;11783;50.350;6.576;2023-08-21T10:48:38;4.13;;;1.80;;
23228;SDS011;11783;50.350;6.576;2023-08-21T10:51:06;5.20;;;1.95;;
23228;SDS011;11783;50.350;6.576;2023-08-21T10:53:32;4.03;;;1.70;;
23228;SDS011;11783;50.350;6.576;2023-08-21T10:56:04;6.82;;;2.45;;
23228;SDS011;11783;50.350;6.576;2023-08-21T10:58:34;3.78;;;2.03;;
23228;SDS011;11783;50.350;6.576;2023-08-21T11:01:02;4.78;;;2.00;;
23228;SDS011;11783;50.350;6.576;2023-08-21T11:03:28;6.65;;;2.15;;
23228;SDS011;11783;50.350;6.576;2023-08-21T11:06:00;4.95;;;1.80;;
23228;SDS011;11783;50.350;6.576;2023-08-21T11:08:29;3.65;;;1.80;;
23228;SDS011;11783;50.350;6.576;2023-08-21T11:10:56;3.83;;;1.67;;
23228;SDS011;11783;50.350;6.576;2023-08-21T11:13:25;6.05;;;1.85;;
23228;SDS011;11783;50.350;6.576;2023-08-21T11:15:57;6.22;;;2.00;;
23228;SDS011;11783;50.350;6.576;2023-08-21T11:18:29;4.18;;;1.67;;
23228;SDS011;11783;50.350;6.576;2023-08-21T11:21:05;3.67;;;1.50;;
23228;SDS011;11783;50.350;6.576;2023-08-21T11:23:32;4.05;;;1.88;;
23228;SDS011;11783;50.350;6.576;2023-08-21T11:25:59;4.72;;;1.90;;
23228;SDS011;11783;50.350;6.576;2023-08-21T11:28:24;5.30;;;1.80;;
23228;SDS011;11783;50.350;6.576;2023-08-21T11:30:49;3.42;;;1.77;;
23228;SDS011;11783;50.350;6.576;2023-08-21T11:33:15;4.45;;;1.60;;
23228;SDS011;11783;50.350;6.576;2023-08-21T11:35:41;3.17;;;1.70;;
23228;SDS011;11783;50.350;6.576;2023-08-21T11:38:15;4.70;;;1.65;;
23228;SDS011;11783;50.350;6.576;2023-08-21T11:40:51;3.42;;;1.50;;
23228;SDS011;11783;50.350;6.576;2023-08-21T11:43:20;3.45;;;1.80;;
23228;SDS011;11783;50.350;6.576;2023-08-21T11:45:46;6.70;;;1.55;;
23228;SDS011;11783;50.350;6.576;2023-08-21T11:48:12;3.83;;;1.60;;
23228;SDS011;11783;50.350;6.576;2023-08-21T11:50:37;3.03;;;1.67;;
23228;SDS011;11783;50.350;6.576;2023-08-21T11:53:03;3.10;;;1.45;;
23228;SDS011;11783;50.350;6.576;2023-08-21T11:55:30;5.25;;;1.52;;
23228;SDS011;11783;50.350;6.576;2023-08-21T11:57:56;4.65;;;1.33;;
23228;SDS011;11783;50.350;6.576;2023-08-21T12:00:26;5.35;;;1.30;;
23228;SDS011;11783;50.350;6.576;2023-08-21T12:02:56;3.17;;;1.10;;
23228;SDS011;11783;50.350;6.576;2023-08-21T12:05:23;6.13;;;1.52;;
23228;SDS011;11783;50.350;6.576;2023-08-21T12:07:49;4.97;;;1.70;;
23228;SDS011;11783;50.350;6.576;2023-08-21T12:10:14;4.55;;;1.23;;
23228;SDS011;11783;50.350;6.576;2023-08-21T12:12:47;3.63;;;1.33;;
23228;SDS011;11783;50.350;6.576;2023-08-21T12:15:12;4.85;;;1.50;;
23228;SDS011;11783;50.350;6.576;2023-08-21T12:17:38;5.60;;;1.60;;
23228;SDS011;11783;50.350;6.576;2023-08-21T12:20:03;3.83;;;1.50;;
23228;SDS011;11783;50.350;6.576;2023-08-21T12:22:35;2.92;;;1.20;;
23228;SDS011;11783;50.350;6.576;2023-08-21T12:25:01;4.22;;;1.35;;
23228;SDS011;11783;50.350;6.576;2023-08-21T12:27:26;2.88;;;1.40;;
23228;SDS011;11783;50.350;6.576;2023-08-21T12:29:51;3.72;;;1.52;;
23228;SDS011;11783;50.350;6.576;2023-08-21T12:32:17;3.75;;;1.70;;
23228;SDS011;11783;50.350;6.576;2023-08-21T12:34:42;8.00;;;1.48;;
23228;SDS011;11783;50.350;6.576;2023-08-21T12:37:07;5.03;;;1.85;;
23228;SDS011;11783;50.350;6.576;2023-08-21T12:39:33;4.10;;;1.38;;
23228;SDS011;11783;50.350;6.576;2023-08-21T12:41:58;4.47;;;1.80;;
23228;SDS011;11783;50.350;6.576;2023-08-21T12:44:23;5.13;;;1.65;;
23228;SDS011;11783;50.350;6.576;2023-08-21T12:46:49;5.15;;;1.90;;
23228;SDS011;11783;50.350;6.576;2023-08-21T12:49:16;3.75;;;1.55;;
23228;SDS011;11783;50.350;6.576;2023-08-21T12:51:41;4.40;;;1.80;;
23228;SDS011;11783;50.350;6.576;2023-08-21T12:54:06;5.28;;;1.95;;
23228;SDS011;11783;50.350;6.576;2023-08-21T12:56:34;5.30;;;1.60;;
23228;SDS011;11783;50.350;6.576;2023-08-21T12:58:59;3.78;;;1.70;;
23228;SDS011;11783;50.350;6.576;2023-08-21T13:01:25;4.00;;;1.70;;
23228;SDS011;11783;50.350;6.576;2023-08-21T13:03:51;4.68;;;1.92;;
23228;SDS011;11783;50.350;6.576;2023-08-21T13:06:16;4.25;;;1.73;;
23228;SDS011;11783;50.350;6.576;2023-08-21T13:08:41;6.15;;;2.00;;
23228;SDS011;11783;50.350;6.576;2023-08-21T13:11:07;5.57;;;1.90;;
23228;SDS011;11783;50.350;6.576;2023-08-21T13:13:33;4.13;;;1.80;;
23228;SDS011;11783;50.350;6.576;2023-08-21T13:15:58;3.67;;;1.52;;
23228;SDS011;11783;50.350;6.576;2023-08-21T13:18:25;4.95;;;1.85;;
23228;SDS011;11783;50.350;6.576;2023-08-21T13:20:50;4.80;;;1.90;;
23228;SDS011;11783;50.350;6.576;2023-08-21T13:23:16;4.13;;;1.80;;
23228;SDS011;11783;50.350;6.576;2023-08-21T13:25:41;4.18;;;1.80;;
23228;SDS011;11783;50.350;6.576;2023-08-21T13:28:07;4.32;;;1.80;;
23228;SDS011;11783;50.350;6.576;2023-08-21T13:30:32;3.42;;;1.70;;
23228;SDS011;11783;50.350;6.576;2023-08-21T13:32:57;3.50;;;1.70;;
23228;SDS011;11783;50.350;6.576;2023-08-21T13:35:23;5.38;;;1.60;;
23228;SDS011;11783;50.350;6.576;2023-08-21T13:37:49;5.25;;;1.90;;
23228;SDS011;11783;50.350;6.576;2023-08-21T13:40:15;4.88;;;1.95;;
23228;SDS011;11783;50.350;6.576;2023-08-21T13:42:42;5.55;;;1.95;;
23228;SDS011;11783;50.350;6.576;2023-08-21T13:45:09;3.92;;;1.88;;
23228;SDS011;11783;50.350;6.576;2023-08-21T13:47:37;6.47;;;2.90;;
23228;SDS011;11783;50.350;6.576;2023-08-21T13:50:04;9.15;;;3.45;;
23228;SDS011;11783;50.350;6.576;2023-08-21T13:52:30;8.00;;;3.80;;
23228;SDS011;11783;50.350;6.576;2023-08-21T13:54:56;7.80;;;3.38;;
23228;SDS011;11783;50.350;6.576;2023-08-21T13:57:21;7.05;;;3.30;;
23228;SDS011;11783;50.350;6.576;2023-08-21T13:59:47;7.53;;;3.42;;
23228;SDS011;11783;50.350;6.576;2023-08-21T14:02:12;7.00;;;3.70;;
23228;SDS011;11783;50.350;6.576;2023-08-21T14:04:38;6.13;;;3.10;;
23228;SDS011;11783;50.350;6.576;2023-08-21T14:07:03;7.38;;;3.47;;
23228;SDS011;11783;50.350;6.576;2023-08-21T14:09:29;6.93;;;3.60;;
23228;SDS011;11783;50.350;6.576;2023-08-21T14:11:54;6.40;;;3.33;;
23228;SDS011;11783;50.350;6.576;2023-08-21T14:14:19;6.78;;;3.00;;
23228;SDS011;11783;50.350;6.576;2023-08-21T14:16:45;9.45;;;3.30;;
23228;SDS011;11783;50.350;6.576;2023-08-21T14:19:10;8.38;;;3.80;;
23228;SDS011;11783;50.350;6.576;2023-08-21T14:21:35;7.28;;;3.78;;
23228;SDS011;11783;50.350;6.576;2023-08-21T14:24:01;6.82;;;3.55;;
23228;SDS011;11783;50.350;6.576;2023-08-21T14:26:26;7.63;;;3.83;;
23228;SDS011;11783;50.350;6.576;2023-08-21T14:28:51;6.95;;;3.53;;
23228;SDS011;11783;50.350;6.576;2023-08-21T14:31:17;5.85;;;3.50;;
23228;SDS011;11783;50.350;6.576;2023-08-21T14:33:43;6.70;;;3.33;;
23228;SDS011;11783;50.350;6.576;2023-08-21T14:36:08;7.03;;;3.55;;
23228;SDS011;11783;50.350;6.576;2023-08-21T14:38:33;9.23;;;4.43;;
23228;SDS011;11783;50.350;6.576;2023-08-21T14:40:59;8.73;;;3.78;;
23228;SDS011;11783;50.350;6.576;2023-08-21T14:43:25;13.02;;;3.90;;